Forside
METAR-TAF:

METAR-TAF

Lufthavne :

Huron County Memorial Airport

Bad Axe, Michigan, USA

Breddekreds: 43-46-51N, længdekreds: 082-59-08W, højde: 233 m

Aktuelle vejr

Denne rapport blev lavet for 31 minutter siden, kl. 17:16 UTC
Vind 5 kt fra østsydøst
Temperatur -2°C
Fugtighed 63%
Tryk 1025 hPa
Sigt: 16.1 km
skyfri

METAR: KBAX 171716Z AUTO 12005KT 10SM CLR M02/M08 A3027 RMK AO2 T10221080

Tid: 12:47 (17:47 UTC)


TAF: fraværende

Vejrobservationer og prognoser fra mere end 4000 lufthavne (METAR og TAF).

De gule og røde prikker repræsenterer de meteorologiske stationer.

Flyt musen over at se navnet på stationen.

Så klik over at se vejr observationer og prognoser.

At skifte det kort: Klik på de grønne knapper med et sort kors for at zoome ind; på den grønne knap med en bindestreg for at zoome ud; eller på de grønne pile for tilstødende kort.


METAR-TAF: